createdAt,value
2022-12-19T00:01:36.190Z,20.20
2022-12-19T00:04:09.117Z,19.90
2022-12-19T00:06:38.032Z,16.90
2022-12-19T00:09:10.827Z,14.20
2022-12-19T00:11:38.679Z,20.60
2022-12-19T00:14:05.978Z,23.30
2022-12-19T00:16:32.935Z,16.70
2022-12-19T00:19:01.401Z,21.10
2022-12-19T00:21:34.773Z,20.10
2022-12-19T00:24:03.457Z,19.40
2022-12-19T00:26:35.770Z,20.70
2022-12-19T00:29:11.146Z,20.30
2022-12-19T00:31:40.683Z,17.90
2022-12-19T00:34:07.261Z,25.80
2022-12-19T00:36:34.562Z,21.70
2022-12-19T00:39:05.095Z,21.40
2022-12-19T00:41:37.315Z,19.30
2022-12-19T00:44:10.400Z,19.90
2022-12-19T00:46:37.131Z,22.50
2022-12-19T00:49:04.911Z,19.60
2022-12-19T00:51:34.278Z,20.80
2022-12-19T00:54:02.153Z,21.50
2022-12-19T00:56:33.468Z,20.80
2022-12-19T00:59:06.284Z,20.00
2022-12-19T01:01:36.078Z,18.80
2022-12-19T01:04:27.842Z,20.30
2022-12-19T01:06:51.966Z,18.20
2022-12-19T01:09:18.758Z,26.50
2022-12-19T01:12:03.947Z,20.30
2022-12-19T01:14:30.417Z,16.90
2022-12-19T01:16:56.874Z,16.50
2022-12-19T01:19:26.587Z,17.60
2022-12-19T01:21:53.506Z,21.50
2022-12-19T01:24:20.243Z,20.60
2022-12-19T01:26:49.373Z,18.70
2022-12-19T01:29:16.241Z,19.50
2022-12-19T01:31:43.617Z,17.30
2022-12-19T01:34:14.480Z,21.90
2022-12-19T01:36:42.087Z,20.30
2022-12-19T01:39:10.244Z,18.60
2022-12-19T01:41:38.702Z,23.10
2022-12-19T01:44:09.939Z,17.50
2022-12-19T01:46:44.325Z,18.40
2022-12-19T01:49:27.569Z,15.60
2022-12-19T01:51:58.606Z,12.90
2022-12-19T01:54:31.771Z,17.30
2022-12-19T01:57:00.970Z,16.70
2022-12-19T01:59:49.931Z,15.80
2022-12-19T02:02:23.164Z,19.10
2022-12-19T02:04:49.822Z,22.20
2022-12-19T02:07:19.949Z,22.70
2022-12-19T02:09:57.079Z,19.20
2022-12-19T02:12:32.387Z,22.60
2022-12-19T02:15:03.211Z,21.80
2022-12-19T02:17:45.193Z,21.10
2022-12-19T02:20:25.685Z,19.40
2022-12-19T02:23:17.736Z,20.80
2022-12-19T02:26:03.233Z,17.10
2022-12-19T02:29:07.227Z,19.70
2022-12-19T02:31:47.512Z,19.80
2022-12-19T02:34:32.160Z,20.30
2022-12-19T02:37:11.470Z,12.40
2022-12-19T02:39:42.573Z,19.00
2022-12-19T02:42:13.730Z,18.00
2022-12-19T02:44:52.014Z,15.80
2022-12-19T02:47:22.202Z,21.30
2022-12-19T02:49:48.963Z,15.10
2022-12-19T02:52:18.881Z,19.30
2022-12-19T02:54:49.106Z,18.40
2022-12-19T02:57:28.242Z,18.30
2022-12-19T03:00:06.360Z,22.30
2022-12-19T03:03:05.185Z,20.10
2022-12-19T03:05:45.935Z,19.00
2022-12-19T03:08:28.003Z,16.00
2022-12-19T03:11:00.996Z,18.90
2022-12-19T03:13:32.751Z,17.80
2022-12-19T03:16:01.127Z,19.10
2022-12-19T03:18:27.869Z,17.70
2022-12-19T03:21:27.598Z,17.50
2022-12-19T03:23:55.564Z,17.10
2022-12-19T03:26:24.770Z,18.90
2022-12-19T03:29:23.766Z,15.40
2022-12-19T03:31:52.239Z,14.70
2022-12-19T03:34:35.112Z,18.00
2022-12-19T03:37:05.295Z,15.80
2022-12-19T03:39:33.886Z,20.10
2022-12-19T03:42:22.048Z,21.20
2022-12-19T03:44:50.953Z,20.20
2022-12-19T03:47:17.442Z,21.20
2022-12-19T03:49:46.046Z,18.40
2022-12-19T03:52:25.717Z,18.50
2022-12-19T03:55:10.745Z,18.10
2022-12-19T03:57:46.100Z,19.40
2022-12-19T04:00:16.423Z,17.90
2022-12-19T04:02:46.623Z,18.60
2022-12-19T04:05:17.953Z,14.70
2022-12-19T04:07:45.035Z,17.60
2022-12-19T04:10:15.804Z,16.20
2022-12-19T04:12:48.037Z,19.10
2022-12-19T04:15:15.281Z,13.30
2022-12-19T04:17:51.545Z,17.10
2022-12-19T04:20:20.870Z,20.80
2022-12-19T04:22:56.103Z,20.00
2022-12-19T04:25:29.543Z,17.30
2022-12-19T04:28:05.860Z,23.20
2022-12-19T04:33:03.221Z,18.90
2022-12-19T04:35:29.684Z,16.70
2022-12-19T04:37:56.167Z,16.80
2022-12-19T04:40:22.662Z,16.10
2022-12-19T04:42:49.081Z,17.70
2022-12-19T04:45:15.577Z,15.50
2022-12-19T04:47:42.506Z,16.70
2022-12-19T04:50:09.911Z,18.80
2022-12-19T04:52:36.412Z,14.50
2022-12-19T04:55:02.851Z,15.40
2022-12-19T04:57:30.758Z,17.20
2022-12-19T04:59:57.689Z,21.10
2022-12-19T05:02:24.725Z,16.70
2022-12-19T05:04:51.575Z,17.00
2022-12-19T05:07:18.042Z,20.00
2022-12-19T05:09:44.487Z,18.80
2022-12-19T05:12:10.979Z,16.80
2022-12-19T05:14:37.430Z,16.70
2022-12-19T05:17:04.084Z,15.60
2022-12-19T05:19:30.589Z,16.50
2022-12-19T05:21:57.475Z,16.70
2022-12-19T05:24:23.929Z,16.10
2022-12-19T05:26:50.637Z,15.90
2022-12-19T05:29:17.204Z,15.40
2022-12-19T05:31:44.087Z,16.40
2022-12-19T05:34:10.661Z,16.80
2022-12-19T05:36:37.130Z,20.40
2022-12-19T05:39:03.641Z,19.50
2022-12-19T05:41:30.073Z,20.00
2022-12-19T05:43:56.590Z,15.70
2022-12-19T05:46:24.267Z,17.40
2022-12-19T05:48:51.316Z,19.70
2022-12-19T05:51:17.809Z,16.00
2022-12-19T05:53:45.028Z,18.00
2022-12-19T05:56:20.228Z,14.40
2022-12-19T05:58:47.675Z,16.50
2022-12-19T06:01:20.988Z,16.30
2022-12-19T06:03:48.256Z,17.00
2022-12-19T06:06:18.033Z,14.70
2022-12-19T06:08:44.996Z,14.10
2022-12-19T06:11:12.853Z,13.90
2022-12-19T06:13:39.903Z,18.90
2022-12-19T06:16:15.765Z,18.80
2022-12-19T06:18:45.027Z,17.10
2022-12-19T06:21:14.950Z,15.80
2022-12-19T06:23:42.621Z,15.90
2022-12-19T06:26:18.284Z,18.10
2022-12-19T06:28:45.561Z,14.60
2022-12-19T06:31:12.416Z,17.90
2022-12-19T06:33:38.927Z,16.40
2022-12-19T06:36:15.773Z,12.80
2022-12-19T06:38:42.370Z,17.60
2022-12-19T06:41:29.381Z,16.30
2022-12-19T06:43:59.974Z,14.00
2022-12-19T06:46:27.083Z,14.70
2022-12-19T06:48:53.610Z,18.90
2022-12-19T06:51:20.057Z,17.20
2022-12-19T06:53:46.543Z,17.00
2022-12-19T06:56:14.923Z,13.20
2022-12-19T06:58:41.627Z,16.30
2022-12-19T07:01:16.139Z,17.00
2022-12-19T07:03:42.717Z,20.40
2022-12-19T07:06:09.168Z,16.20
2022-12-19T07:08:35.631Z,13.10
2022-12-19T07:11:02.261Z,15.60
2022-12-19T07:13:28.871Z,18.30
2022-12-19T07:15:58.723Z,19.80
2022-12-19T07:18:25.497Z,14.80
2022-12-19T07:20:52.038Z,15.30
2022-12-19T07:23:22.111Z,17.60
2022-12-19T07:25:48.653Z,21.70
2022-12-19T07:28:16.574Z,18.30
2022-12-19T07:30:43.115Z,14.90
2022-12-19T07:33:11.531Z,10.80
2022-12-19T07:35:39.385Z,16.40
2022-12-19T07:38:07.994Z,13.80
2022-12-19T07:40:35.733Z,15.40
2022-12-19T07:43:03.967Z,17.30
2022-12-19T07:45:31.240Z,14.40
2022-12-19T07:48:02.313Z,15.30
2022-12-19T07:50:29.507Z,15.20
2022-12-19T07:52:57.599Z,14.70
2022-12-19T07:55:24.541Z,14.30
2022-12-19T07:57:51.005Z,16.90
2022-12-19T08:00:18.022Z,19.20
2022-12-19T08:02:44.623Z,17.30
2022-12-19T08:05:12.659Z,20.50
2022-12-19T08:07:39.695Z,18.00
2022-12-19T08:10:06.974Z,17.80
2022-12-19T08:12:34.183Z,16.80
2022-12-19T08:15:00.623Z,16.40
2022-12-19T08:17:27.227Z,18.90
2022-12-19T08:19:53.815Z,19.10
2022-12-19T08:22:20.255Z,16.60
2022-12-19T08:24:46.876Z,14.40
2022-12-19T08:27:13.289Z,17.50
2022-12-19T08:32:06.108Z,16.10
2022-12-19T08:36:59.335Z,19.90
2022-12-19T08:39:25.864Z,18.60
2022-12-19T08:41:52.357Z,17.40
2022-12-19T08:44:18.805Z,17.60
2022-12-19T08:46:50.030Z,16.00
2022-12-19T08:49:18.630Z,18.80
2022-12-19T08:51:46.068Z,19.40
2022-12-19T08:54:12.600Z,19.50
2022-12-19T08:56:41.417Z,18.70
2022-12-19T08:59:13.470Z,18.90
2022-12-19T09:01:47.038Z,16.60
2022-12-19T09:05:59.607Z,18.90
2022-12-19T09:06:59.994Z,22.00
2022-12-19T09:09:27.090Z,15.60
2022-12-19T09:11:53.582Z,16.80
2022-12-19T09:14:21.212Z,17.60
2022-12-19T09:16:48.582Z,18.40
2022-12-19T09:19:16.477Z,16.40
2022-12-19T09:21:43.873Z,19.80
2022-12-19T09:24:11.107Z,18.00
2022-12-19T09:26:42.081Z,23.20
2022-12-19T09:29:17.564Z,19.60
2022-12-19T09:31:48.017Z,17.80
2022-12-19T09:34:23.419Z,18.10
2022-12-19T09:36:50.861Z,18.80
2022-12-19T09:42:10.148Z,22.20
2022-12-19T09:45:03.975Z,17.50
2022-12-19T09:47:33.167Z,17.00
2022-12-19T09:50:01.373Z,19.40
2022-12-19T09:52:45.868Z,18.20
2022-12-19T09:55:22.472Z,14.10
2022-12-19T09:58:08.130Z,16.00
2022-12-19T10:00:43.056Z,19.60
2022-12-19T10:03:28.405Z,14.70
2022-12-19T10:07:11.965Z,17.10
2022-12-19T10:09:45.351Z,18.30
2022-12-19T10:12:42.886Z,22.30
2022-12-19T10:15:05.646Z,16.50
2022-12-19T10:17:58.008Z,16.50
2022-12-19T10:20:35.368Z,17.00
2022-12-19T10:23:21.598Z,18.20
2022-12-19T10:26:06.889Z,16.80
2022-12-19T10:28:39.404Z,17.00
2022-12-19T10:31:22.064Z,15.50
2022-12-19T10:34:23.275Z,17.90
2022-12-19T10:37:26.650Z,15.80
2022-12-19T10:40:05.658Z,16.10
2022-12-19T10:42:58.415Z,16.90
2022-12-19T10:45:41.540Z,14.00
2022-12-19T10:48:14.833Z,14.90
2022-12-19T10:50:41.341Z,13.80
2022-12-19T10:53:13.384Z,14.60
2022-12-19T10:55:53.602Z,17.00
2022-12-19T10:58:37.727Z,15.70
2022-12-19T11:01:26.417Z,16.10
2022-12-19T11:04:13.720Z,13.00
2022-12-19T11:06:46.599Z,17.60
2022-12-19T11:09:21.456Z,16.00
2022-12-19T11:14:49.981Z,17.40
2022-12-19T11:19:25.874Z,20.90
2022-12-19T11:24:10.080Z,16.60
2022-12-19T11:29:32.232Z,14.60
2022-12-19T11:29:44.434Z,13.80
2022-12-19T11:29:44.967Z,18.10
2022-12-19T11:30:48.672Z,15.90
2022-12-19T11:34:25.855Z,13.10
2022-12-19T11:37:07.143Z,13.30
2022-12-19T11:39:41.820Z,13.50
2022-12-19T11:42:15.765Z,16.90
2022-12-19T11:45:11.640Z,12.90
2022-12-19T11:47:51.806Z,12.60
2022-12-19T11:50:24.801Z,14.40
2022-12-19T11:53:05.906Z,16.30
2022-12-19T11:55:51.131Z,15.20
2022-12-19T11:58:17.565Z,14.30
2022-12-19T12:03:59.216Z,11.30
2022-12-19T12:06:38.565Z,13.20
2022-12-19T12:15:11.868Z,13.50
2022-12-19T12:18:15.394Z,13.20
2022-12-19T12:25:36.719Z,15.30
2022-12-19T12:31:12.177Z,12.40
2022-12-19T12:31:16.333Z,13.10
2022-12-19T12:31:44.723Z,15.40
2022-12-19T12:31:46.050Z,15.20
2022-12-19T12:35:51.821Z,13.40
2022-12-19T12:37:00.201Z,13.60
2022-12-19T12:38:22.066Z,12.50
2022-12-19T12:41:04.021Z,14.00
2022-12-19T12:43:42.015Z,14.70
2022-12-19T12:46:15.324Z,14.90
2022-12-19T12:48:51.926Z,14.20
2022-12-19T12:51:19.402Z,13.70
2022-12-19T12:53:47.976Z,16.60
2022-12-19T12:56:17.744Z,13.60
2022-12-19T12:58:48.501Z,14.80
2022-12-19T13:01:27.935Z,12.00
2022-12-19T13:03:58.924Z,11.30
2022-12-19T13:06:59.309Z,13.40
2022-12-19T13:09:29.267Z,11.10
2022-12-19T13:12:21.779Z,12.70
2022-12-19T13:14:52.240Z,10.20
2022-12-19T13:17:34.002Z,9.70
2022-12-19T13:20:03.446Z,12.70
2022-12-19T13:22:29.865Z,11.10
2022-12-19T13:24:58.490Z,8.40
2022-12-19T13:27:33.428Z,10.30
2022-12-19T13:29:59.843Z,10.00
2022-12-19T13:32:38.523Z,8.90
2022-12-19T13:36:15.512Z,10.90
2022-12-19T13:39:57.949Z,9.90
2022-12-19T13:41:58.576Z,11.20
2022-12-19T13:44:28.361Z,13.20
2022-12-19T13:46:57.206Z,12.40
2022-12-19T13:49:34.192Z,14.60
2022-12-19T13:52:04.116Z,12.40
2022-12-19T13:54:38.675Z,12.40
2022-12-19T13:57:22.317Z,11.40
2022-12-19T14:00:00.123Z,12.60
2022-12-19T14:02:32.129Z,13.60
2022-12-19T14:05:00.277Z,13.80
2022-12-19T14:07:36.921Z,12.70
2022-12-19T14:11:35.069Z,10.50
2022-12-19T14:13:57.588Z,13.80
2022-12-19T14:16:16.148Z,12.20
2022-12-19T14:18:49.743Z,14.30
2022-12-19T14:22:10.607Z,13.10
2022-12-19T14:24:12.416Z,12.20
2022-12-19T14:28:18.525Z,13.70
2022-12-19T14:30:26.730Z,11.20
2022-12-19T14:33:43.932Z,8.30
2022-12-19T14:36:07.919Z,14.20
2022-12-19T14:39:20.495Z,13.50
2022-12-19T14:41:27.195Z,13.30
2022-12-19T14:43:59.367Z,15.50
2022-12-19T14:53:52.662Z,15.10
2022-12-19T14:54:11.923Z,15.50
2022-12-19T14:54:55.201Z,12.90
2022-12-19T14:56:08.240Z,14.40
2022-12-19T14:58:56.286Z,15.80
2022-12-19T15:01:32.963Z,12.90
2022-12-19T15:04:53.200Z,16.10
2022-12-19T15:07:10.037Z,12.90
2022-12-19T15:11:05.551Z,14.80
2022-12-19T15:14:51.990Z,13.00
2022-12-19T15:16:07.247Z,16.00
2022-12-19T15:18:42.531Z,12.50
2022-12-19T15:21:14.396Z,16.10
2022-12-19T15:23:42.179Z,15.30
2022-12-19T15:26:14.549Z,13.00
2022-12-19T15:28:52.703Z,13.00
2022-12-19T15:31:35.383Z,14.30
2022-12-19T15:34:50.167Z,15.10
2022-12-19T15:37:16.511Z,12.60
2022-12-19T15:39:44.552Z,10.30
2022-12-19T15:42:22.713Z,12.30
2022-12-19T15:44:52.313Z,12.20
2022-12-19T15:47:30.224Z,13.50
2022-12-19T15:50:00.372Z,12.30
2022-12-19T15:52:27.572Z,11.70
2022-12-19T15:54:57.302Z,12.70
2022-12-19T15:57:39.702Z,12.80
2022-12-19T16:00:19.648Z,12.80
2022-12-19T16:05:35.933Z,12.80
2022-12-19T16:08:06.098Z,13.40
2022-12-19T16:10:32.735Z,12.90
2022-12-19T16:12:59.214Z,12.20
2022-12-19T16:15:33.941Z,14.70
2022-12-19T16:18:03.015Z,12.50
2022-12-19T16:20:32.310Z,13.10
2022-12-19T16:22:59.830Z,10.60
2022-12-19T16:25:47.940Z,12.20
2022-12-19T16:28:28.984Z,12.20
2022-12-19T16:30:58.430Z,13.60
2022-12-19T16:33:30.710Z,13.80
2022-12-19T16:36:06.212Z,14.10
2022-12-19T16:38:35.545Z,16.50
2022-12-19T16:41:02.891Z,15.40
2022-12-19T16:43:37.846Z,14.20
2022-12-19T16:46:06.855Z,12.20
2022-12-19T16:48:36.938Z,10.70
2022-12-19T16:51:16.395Z,11.60
2022-12-19T16:53:42.899Z,13.40
2022-12-19T16:56:44.824Z,14.60
2022-12-19T16:59:20.538Z,12.40
2022-12-19T17:01:48.000Z,9.30
2022-12-19T17:04:19.821Z,13.10
2022-12-19T17:06:46.388Z,12.30
2022-12-19T17:09:18.783Z,10.40
2022-12-19T17:11:50.364Z,11.40
2022-12-19T17:14:23.700Z,11.70
2022-12-19T17:16:53.937Z,13.00
2022-12-19T17:19:29.208Z,12.60
2022-12-19T17:21:56.033Z,9.70
2022-12-19T17:24:22.520Z,12.80
2022-12-19T17:26:51.282Z,11.40
2022-12-19T17:29:17.791Z,11.30
2022-12-19T17:31:44.768Z,12.80
2022-12-19T17:34:25.867Z,11.50
2022-12-19T17:36:54.285Z,9.10
2022-12-19T17:39:26.408Z,13.00
2022-12-19T17:41:55.934Z,11.50
2022-12-19T17:44:23.027Z,11.80
2022-12-19T17:46:52.588Z,10.60
2022-12-19T17:49:36.870Z,9.90
2022-12-19T17:52:03.471Z,12.80
2022-12-19T17:54:33.445Z,12.90
2022-12-19T17:57:01.161Z,11.20
2022-12-19T17:59:27.711Z,10.60
2022-12-19T18:01:54.826Z,11.30
2022-12-19T18:04:29.444Z,8.20
2022-12-19T18:06:56.024Z,12.10
2022-12-19T18:09:24.545Z,10.80
2022-12-19T18:11:53.166Z,12.90
2022-12-19T18:14:24.196Z,11.90
2022-12-19T18:16:53.325Z,12.90
2022-12-19T18:19:30.602Z,12.70
2022-12-19T18:21:58.695Z,11.00
2022-12-19T18:24:25.802Z,13.70
2022-12-19T18:26:56.980Z,12.00
2022-12-19T18:29:23.927Z,14.30
2022-12-19T18:31:51.532Z,13.40
2022-12-19T18:34:22.671Z,11.10
2022-12-19T18:36:49.981Z,11.70
2022-12-19T18:39:29.103Z,11.70
2022-12-19T18:41:55.746Z,9.90
2022-12-19T18:44:25.818Z,12.90
2022-12-19T18:46:53.370Z,11.40
2022-12-19T18:49:20.826Z,12.60
2022-12-19T18:51:47.268Z,11.70
2022-12-19T18:54:19.515Z,14.70
2022-12-19T18:56:46.686Z,11.00
2022-12-19T18:59:14.910Z,13.00
2022-12-19T19:01:44.528Z,11.40
2022-12-19T19:04:14.470Z,12.50
2022-12-19T19:06:48.311Z,11.20
2022-12-19T19:09:18.423Z,14.30
2022-12-19T19:11:45.655Z,12.80
2022-12-19T19:14:12.311Z,15.40
2022-12-19T19:16:40.060Z,16.30
2022-12-19T19:19:09.930Z,15.20
2022-12-19T19:21:38.179Z,14.10
2022-12-19T19:24:12.244Z,13.80
2022-12-19T19:26:38.833Z,12.40
2022-12-19T19:29:05.926Z,12.70
2022-12-19T19:31:36.511Z,13.70
2022-12-19T19:34:09.595Z,11.20
2022-12-19T19:36:42.416Z,9.40
2022-12-19T19:39:10.819Z,12.90
2022-12-19T19:41:38.006Z,11.70
2022-12-19T19:44:05.125Z,14.90
2022-12-19T19:46:32.942Z,10.80
2022-12-19T19:48:59.592Z,12.00
2022-12-19T19:51:29.139Z,11.00
2022-12-19T19:53:56.680Z,14.30
2022-12-19T19:56:23.461Z,13.20
2022-12-19T19:58:50.078Z,12.20
2022-12-19T20:01:16.722Z,12.60
2022-12-19T20:03:44.745Z,10.80
2022-12-19T20:06:12.275Z,13.10
2022-12-19T20:08:40.226Z,10.90
2022-12-19T20:11:08.792Z,10.70
2022-12-19T20:13:38.367Z,9.70
2022-12-19T20:16:15.420Z,11.70
2022-12-19T20:18:47.711Z,11.80
2022-12-19T20:21:17.096Z,10.70
2022-12-19T20:23:44.892Z,10.90
2022-12-19T20:26:14.967Z,12.30
2022-12-19T20:28:48.300Z,9.30
2022-12-19T20:31:19.487Z,13.80
2022-12-19T20:33:48.672Z,10.50
2022-12-19T20:36:16.872Z,9.40
2022-12-19T20:38:46.363Z,11.50
2022-12-19T20:41:13.567Z,11.40
2022-12-19T20:43:41.905Z,10.20
2022-12-19T20:46:16.325Z,11.10
2022-12-19T20:48:43.971Z,18.00
2022-12-19T20:51:12.833Z,23.20
2022-12-19T20:53:41.621Z,13.60
2022-12-19T20:56:10.830Z,15.90
2022-12-19T20:58:37.908Z,12.10
2022-12-19T21:01:08.984Z,14.20
2022-12-19T21:03:37.220Z,12.30
2022-12-19T21:06:04.959Z,9.70
2022-12-19T21:08:32.401Z,9.20
2022-12-19T21:11:01.521Z,10.20
2022-12-19T21:13:28.263Z,10.00
2022-12-19T21:16:01.999Z,14.90
2022-12-19T21:18:33.367Z,10.90
2022-12-19T21:21:00.152Z,9.00
2022-12-19T21:23:28.011Z,8.60
2022-12-19T21:26:01.496Z,15.30
2022-12-19T21:28:29.779Z,10.00
2022-12-19T21:30:58.859Z,10.60
2022-12-19T21:33:27.180Z,10.00
2022-12-19T21:35:53.757Z,11.50
2022-12-19T21:38:21.605Z,11.80
2022-12-19T21:40:48.459Z,12.00
2022-12-19T21:43:15.004Z,10.60
2022-12-19T21:45:41.822Z,20.90
2022-12-19T21:48:09.029Z,15.60
2022-12-19T21:50:35.954Z,13.10
2022-12-19T21:53:02.463Z,12.50
2022-12-19T21:55:30.151Z,13.50
2022-12-19T21:57:56.666Z,12.40
2022-12-19T22:00:25.424Z,10.50
2022-12-19T22:03:12.533Z,9.80
2022-12-19T22:05:40.425Z,10.30
2022-12-19T22:08:09.367Z,9.70
2022-12-19T22:10:39.651Z,8.50
2022-12-19T22:13:06.380Z,8.60
2022-12-19T22:15:36.811Z,7.50
2022-12-19T22:18:04.345Z,12.00
2022-12-19T22:20:30.928Z,9.60
2022-12-19T22:22:58.879Z,11.20
2022-12-19T22:25:25.712Z,11.20
2022-12-19T22:27:56.588Z,11.70
2022-12-19T22:30:23.259Z,9.90
2022-12-19T22:32:50.824Z,12.50
2022-12-19T22:35:17.759Z,10.70
2022-12-19T22:37:44.417Z,11.00
2022-12-19T22:40:13.303Z,9.30
2022-12-19T22:42:39.799Z,10.20
2022-12-19T22:45:07.008Z,11.70
2022-12-19T22:47:35.288Z,11.70
2022-12-19T22:50:01.833Z,9.30
2022-12-19T22:52:29.445Z,9.30
2022-12-19T22:54:55.955Z,12.20
2022-12-19T22:57:23.609Z,10.90
2022-12-19T22:59:51.571Z,10.40
2022-12-19T23:02:18.334Z,11.00
2022-12-19T23:04:46.399Z,9.80
2022-12-19T23:07:13.010Z,9.30
2022-12-19T23:09:39.627Z,9.60
2022-12-19T23:12:06.700Z,9.20
2022-12-19T23:14:35.731Z,8.60
2022-12-19T23:17:02.345Z,8.50
2022-12-19T23:19:32.713Z,12.80
2022-12-19T23:22:01.336Z,11.10
2022-12-19T23:24:28.975Z,12.50
2022-12-19T23:26:55.920Z,11.30
2022-12-19T23:29:22.414Z,8.80
2022-12-19T23:31:49.381Z,11.00
2022-12-19T23:34:16.559Z,11.00
2022-12-19T23:39:33.290Z,9.50
2022-12-19T23:42:00.387Z,10.00
2022-12-19T23:44:27.969Z,9.30
2022-12-19T23:47:02.356Z,10.50
2022-12-19T23:49:29.925Z,8.30
2022-12-19T23:51:57.172Z,9.70
2022-12-19T23:54:24.643Z,6.30
2022-12-19T23:56:53.396Z,12.50
2022-12-19T23:59:21.246Z,9.30
